createdAt,value
2016-05-15T00:00:35.108Z,17.28
2016-05-15T00:01:34.986Z,17.23
2016-05-15T00:02:35.160Z,17.28
2016-05-15T00:03:35.289Z,17.26
2016-05-15T00:04:35.042Z,17.25
2016-05-15T00:05:35.216Z,17.25
2016-05-15T00:06:35.250Z,17.31
2016-05-15T00:07:35.268Z,17.28
2016-05-15T00:08:35.286Z,17.25
2016-05-15T00:09:35.320Z,17.18
2016-05-15T00:10:35.340Z,17.19
2016-05-15T00:11:35.373Z,17.26
2016-05-15T00:12:35.376Z,17.25
2016-05-15T00:13:35.409Z,17.21
2016-05-15T00:14:35.271Z,17.22
2016-05-15T00:15:35.290Z,17.23
2016-05-15T00:16:35.308Z,17.22
2016-05-15T00:17:35.498Z,17.22
2016-05-15T00:18:35.532Z,17.18
2016-05-15T00:19:35.550Z,17.18
2016-05-15T00:20:35.569Z,17.18
2016-05-15T00:21:35.587Z,17.21
2016-05-15T00:22:35.464Z,17.21
2016-05-15T00:23:35.640Z,17.15
2016-05-15T00:24:35.502Z,17.23
2016-05-15T00:25:35.676Z,17.16
2016-05-15T00:26:35.710Z,17.22
2016-05-15T00:27:35.728Z,17.22
2016-05-15T00:28:35.746Z,17.18
2016-05-15T00:29:35.780Z,17.22
2016-05-15T00:30:35.643Z,17.22
2016-05-15T00:31:35.817Z,17.21
2016-05-15T00:32:35.852Z,17.16
2016-05-15T00:33:36.307Z,17.15
2016-05-15T00:34:35.888Z,17.18
2016-05-15T00:35:35.749Z,17.22
2016-05-15T00:36:35.940Z,17.08
2016-05-15T00:37:35.974Z,17.19
2016-05-15T00:38:35.835Z,17.12
2016-05-15T00:39:36.010Z,17.04
2016-05-15T00:40:35.873Z,17.16
2016-05-15T00:41:36.062Z,17.12
2016-05-15T00:42:36.065Z,17.16
2016-05-15T00:43:36.099Z,17.21
2016-05-15T00:44:36.118Z,17.21
2016-05-15T00:45:35.995Z,17.26
2016-05-15T00:46:36.170Z,17.14
2016-05-15T00:47:36.204Z,17.22
2016-05-15T00:48:36.425Z,17.18
2016-05-15T00:49:36.241Z,17.18
2016-05-15T00:50:36.103Z,17.25
2016-05-15T00:51:36.293Z,17.22
2016-05-15T00:52:36.295Z,17.14
2016-05-15T00:53:36.361Z,17.18
2016-05-15T00:54:36.347Z,17.16
2016-05-15T00:55:36.366Z,17.22
2016-05-15T00:56:36.416Z,17.12
2016-05-15T00:57:36.434Z,17.07
2016-05-15T00:58:36.452Z,17.22
2016-05-15T00:59:36.471Z,17.22
2016-05-15T01:00:36.333Z,17.08
2016-05-15T01:01:36.522Z,17.14
2016-05-15T01:02:36.525Z,17.23
2016-05-15T01:03:47.263Z,17.14
2016-05-15T01:04:36.875Z,17.14
2016-05-15T01:05:36.627Z,17.08
2016-05-15T01:06:36.646Z,17.07
2016-05-15T01:07:36.508Z,17.11
2016-05-15T01:08:36.698Z,17.12
2016-05-15T01:09:36.701Z,17.08
2016-05-15T01:10:36.719Z,17.06
2016-05-15T01:11:36.597Z,17.14
2016-05-15T01:12:36.787Z,17.11
2016-05-15T01:13:36.805Z,17.15
2016-05-15T01:14:36.807Z,17.18
2016-05-15T01:15:36.842Z,17.12
2016-05-15T01:16:36.860Z,17.11
2016-05-15T01:17:36.894Z,17.14
2016-05-15T01:18:36.928Z,17.15
2016-05-15T01:19:36.946Z,17.08
2016-05-15T01:20:36.948Z,17.11
2016-05-15T01:21:36.984Z,17.16
2016-05-15T01:22:37.001Z,17.15
2016-05-15T01:23:36.864Z,17.14
2016-05-15T01:24:37.053Z,17.08
2016-05-15T01:25:37.072Z,17.12
2016-05-15T01:26:36.934Z,17.06
2016-05-15T01:27:36.967Z,17.14
2016-05-15T01:28:37.142Z,17.07
2016-05-15T01:29:37.005Z,17.11
2016-05-15T01:30:37.179Z,17.14
2016-05-15T01:31:37.213Z,17.04
2016-05-15T01:32:37.231Z,17.04
2016-05-15T01:33:37.109Z,17.03
2016-05-15T01:34:37.283Z,17.08
2016-05-15T01:35:37.146Z,17.01
2016-05-15T01:36:37.321Z,17.03
2016-05-15T01:37:37.354Z,17.06
2016-05-15T01:38:37.372Z,17.04
2016-05-15T01:39:37.391Z,17.12
2016-05-15T01:40:37.252Z,17.08
2016-05-15T01:41:37.427Z,17.06
2016-05-15T01:42:37.461Z,17.03
2016-05-15T01:43:37.479Z,17.07
2016-05-15T01:44:37.513Z,17.15
2016-05-15T01:45:37.531Z,17
2016-05-15T01:46:37.550Z,17.03
2016-05-15T01:47:37.568Z,17.07
2016-05-15T01:48:37.306Z,17.04
2016-05-15T01:49:37.621Z,17.03
2016-05-15T01:50:37.498Z,17.07
2016-05-15T01:51:37.532Z,17.04
2016-05-15T01:52:37.550Z,17.03
2016-05-15T01:53:37.726Z,17.08
2016-05-15T01:54:37.744Z,17.04
2016-05-15T01:55:37.762Z,17.15
2016-05-15T01:56:37.780Z,17.11
2016-05-15T01:57:37.658Z,17.07
2016-05-15T01:58:37.692Z,17.11
2016-05-15T01:59:37.866Z,17
2016-05-15T02:00:37.869Z,17.04
2016-05-15T02:01:37.903Z,17.03
2016-05-15T02:02:37.922Z,17.11
2016-05-15T02:03:37.643Z,17.15
2016-05-15T02:04:37.958Z,17.06
2016-05-15T02:05:37.991Z,17.07
2016-05-15T02:06:37.854Z,17.03
2016-05-15T02:07:38.044Z,17
2016-05-15T02:08:37.906Z,17.08
2016-05-15T02:09:38.081Z,17.07
2016-05-15T02:10:37.943Z,17.07
2016-05-15T02:11:38.118Z,17.07
2016-05-15T02:12:37.995Z,17.14
2016-05-15T02:13:38.186Z,17.18
2016-05-15T02:14:38.204Z,17.08
2016-05-15T02:15:38.065Z,17.12
2016-05-15T02:16:38.241Z,17.11
2016-05-15T02:17:38.259Z,17.11
2016-05-15T02:18:38.667Z,17.12
2016-05-15T02:19:38.312Z,17.07
2016-05-15T02:20:38.189Z,17.12
2016-05-15T02:21:38.363Z,17.04
2016-05-15T02:22:38.381Z,17.14
2016-05-15T02:23:38.400Z,17.15
2016-05-15T02:24:38.418Z,17.08
2016-05-15T02:25:38.452Z,17.06
2016-05-15T02:26:38.470Z,17.12
2016-05-15T02:27:38.489Z,17.01
2016-05-15T02:28:38.523Z,17.14
2016-05-15T02:29:38.541Z,17.08
2016-05-15T02:30:38.559Z,17.11
2016-05-15T02:31:38.593Z,17.12
2016-05-15T02:32:38.612Z,17.11
2016-05-15T02:33:38.489Z,17.07
2016-05-15T02:34:38.647Z,17.11
2016-05-15T02:35:38.525Z,17.12
2016-05-15T02:36:38.700Z,17.08
2016-05-15T02:37:38.719Z,17.15
2016-05-15T02:38:38.596Z,17.14
2016-05-15T02:39:38.771Z,17.11
2016-05-15T02:40:38.633Z,17.08
2016-05-15T02:41:38.823Z,17.16
2016-05-15T02:42:38.685Z,17.12
2016-05-15T02:43:38.704Z,17.11
2016-05-15T02:44:38.738Z,17.15
2016-05-15T02:45:38.912Z,17.11
2016-05-15T02:46:38.930Z,17.08
2016-05-15T02:47:38.792Z,17.08
2016-05-15T02:48:39.045Z,17.07
2016-05-15T02:49:39.001Z,17.12
2016-05-15T02:50:39.019Z,17.08
2016-05-15T02:51:39.038Z,17.14
2016-05-15T02:52:39.071Z,17.11
2016-05-15T02:53:39.089Z,17.08
2016-05-15T02:54:39.123Z,17.06
2016-05-15T02:55:38.986Z,17.08
2016-05-15T02:56:39.004Z,17.11
2016-05-15T02:57:39.038Z,17.16
2016-05-15T02:58:39.042Z,17.11
2016-05-15T02:59:39.215Z,17.07
2016-05-15T03:00:39.249Z,17.08
2016-05-15T03:01:39.267Z,17.08
2016-05-15T03:02:39.317Z,17.15
2016-05-15T03:03:39.179Z,17.07
2016-05-15T03:04:39.338Z,17.15
2016-05-15T03:05:39.216Z,17.08
2016-05-15T03:06:39.391Z,17.04
2016-05-15T03:07:39.408Z,17.12
2016-05-15T03:08:39.427Z,17.08
2016-05-15T03:09:39.289Z,17.12
2016-05-15T03:10:39.479Z,17.12
2016-05-15T03:11:39.497Z,17.08
2016-05-15T03:12:39.532Z,17.07
2016-05-15T03:13:39.550Z,17.11
2016-05-15T03:14:39.412Z,17.14
2016-05-15T03:15:39.618Z,17.14
2016-05-15T03:16:39.621Z,17.15
2016-05-15T03:17:39.638Z,17.11
2016-05-15T03:18:39.954Z,17.15
2016-05-15T03:19:39.690Z,17.06
2016-05-15T03:20:39.710Z,17.14
2016-05-15T03:21:39.571Z,17.16
2016-05-15T03:22:39.761Z,17.12
2016-05-15T03:23:39.796Z,17.12
2016-05-15T03:24:39.829Z,17.08
2016-05-15T03:25:39.659Z,17.14
2016-05-15T03:26:39.851Z,17.12
2016-05-15T03:27:39.712Z,17.11
2016-05-15T03:28:39.887Z,17.07
2016-05-15T03:29:39.936Z,17.11
2016-05-15T03:30:39.798Z,17.03
2016-05-15T03:31:39.645Z,17.08
2016-05-15T03:32:39.975Z,17.11
2016-05-15T03:33:40.010Z,17.07
2016-05-15T03:34:40.138Z,17.03
2016-05-15T03:35:40.062Z,17.11
2016-05-15T03:36:40.080Z,17.03
2016-05-15T03:37:40.099Z,17.07
2016-05-15T03:38:39.977Z,17.06
2016-05-15T03:39:39.979Z,17.03
2016-05-15T03:40:40.169Z,17.04
2016-05-15T03:41:40.203Z,17.14
2016-05-15T03:42:40.222Z,17.03
2016-05-15T03:43:40.240Z,16.98
2016-05-15T03:44:40.257Z,17.04
2016-05-15T03:45:40.277Z,17
2016-05-15T03:46:40.138Z,17.04
2016-05-15T03:47:40.328Z,17.04
2016-05-15T03:48:40.363Z,17.08
2016-05-15T03:49:40.679Z,17
2016-05-15T03:50:40.399Z,17.01
2016-05-15T03:51:40.417Z,17.07
2016-05-15T03:52:40.452Z,17.14
2016-05-15T03:53:40.470Z,17
2016-05-15T03:54:40.487Z,17.01
2016-05-15T03:55:40.507Z,17.03
2016-05-15T03:56:40.540Z,17.06
2016-05-15T03:57:40.559Z,17.11
2016-05-15T03:58:40.592Z,17.07
2016-05-15T03:59:40.626Z,16.97
2016-05-15T04:00:40.629Z,17.03
2016-05-15T04:01:40.663Z,17.11
2016-05-15T04:02:40.697Z,17.01
2016-05-15T04:03:40.716Z,17.03
2016-05-15T04:04:40.578Z,17.01
2016-05-15T04:05:40.580Z,17.08
2016-05-15T04:06:40.770Z,17.15
2016-05-15T04:07:40.789Z,17.08
2016-05-15T04:08:40.650Z,17.11
2016-05-15T04:09:40.685Z,17
2016-05-15T04:10:40.860Z,17.01
2016-05-15T04:11:40.878Z,17.06
2016-05-15T04:12:40.911Z,17.04
2016-05-15T04:13:40.929Z,17.08
2016-05-15T04:14:40.949Z,17.06
2016-05-15T04:15:40.966Z,17
2016-05-15T04:16:40.828Z,17
2016-05-15T04:17:41.019Z,17
2016-05-15T04:18:41.709Z,17
2016-05-15T04:19:41.634Z,17.06
2016-05-15T04:20:41.090Z,17.11
2016-05-15T04:21:41.108Z,17.07
2016-05-15T04:22:41.142Z,17.03
2016-05-15T04:23:41.159Z,17.12
2016-05-15T04:24:41.179Z,17.11
2016-05-15T04:25:41.212Z,17.06
2016-05-15T04:26:41.231Z,17.01
2016-05-15T04:27:41.248Z,17.11
2016-05-15T04:28:41.283Z,17.03
2016-05-15T04:29:41.317Z,17.07
2016-05-15T04:30:41.319Z,17.14
2016-05-15T04:31:41.369Z,17.12
2016-05-15T04:32:41.200Z,17.08
2016-05-15T04:33:41.672Z,17.12
2016-05-15T04:34:41.267Z,17.12
2016-05-15T04:35:41.427Z,17.14
2016-05-15T04:36:41.461Z,17.04
2016-05-15T04:37:41.478Z,17.16
2016-05-15T04:38:41.497Z,17.06
2016-05-15T04:39:41.516Z,17.14
2016-05-15T04:40:41.549Z,17.08
2016-05-15T04:41:41.568Z,17.14
2016-05-15T04:42:41.586Z,17.07
2016-05-15T04:43:41.604Z,17.07
2016-05-15T04:44:41.638Z,17.14
2016-05-15T04:45:41.656Z,17.14
2016-05-15T04:46:41.691Z,17.07
2016-05-15T04:47:41.552Z,17.07
2016-05-15T04:48:41.727Z,17.12
2016-05-15T04:49:41.652Z,17.11
2016-05-15T04:50:41.763Z,17.12
2016-05-15T04:51:41.798Z,17.08
2016-05-15T04:52:41.832Z,17.19
2016-05-15T04:53:41.693Z,17.03
2016-05-15T04:54:41.868Z,17.18
2016-05-15T04:55:41.731Z,17.22
2016-05-15T04:56:41.905Z,17.22
2016-05-15T04:57:41.939Z,17.18
2016-05-15T04:58:41.957Z,17.23
2016-05-15T04:59:41.834Z,17.23
2016-05-15T05:00:42.009Z,17.23
2016-05-15T05:01:42.028Z,17.28
2016-05-15T05:02:41.905Z,17.16
2016-05-15T05:03:42.065Z,17.18
2016-05-15T05:04:42.098Z,17.21
2016-05-15T05:05:42.147Z,17.22
2016-05-15T05:06:42.151Z,17.18
2016-05-15T05:07:42.169Z,17.19
2016-05-15T05:08:42.186Z,17.19
2016-05-15T05:09:42.206Z,17.19
2016-05-15T05:10:42.224Z,17.16
2016-05-15T05:11:42.258Z,17.3
2016-05-15T05:12:42.276Z,17.22
2016-05-15T05:13:42.154Z,17.23
2016-05-15T05:14:42.328Z,17.4
2016-05-15T05:15:42.346Z,17.37
2016-05-15T05:16:42.380Z,17.34
2016-05-15T05:17:42.399Z,17.36
2016-05-15T05:18:42.261Z,17.41
2016-05-15T05:19:42.607Z,17.37
2016-05-15T05:20:42.454Z,17.4
2016-05-15T05:21:42.504Z,17.4
2016-05-15T05:22:42.506Z,17.37
2016-05-15T05:23:42.540Z,17.33
2016-05-15T05:24:42.558Z,17.37
2016-05-15T05:25:42.421Z,17.34
2016-05-15T05:26:42.610Z,17.48
2016-05-15T05:27:42.628Z,17.43
2016-05-15T05:28:42.648Z,17.34
2016-05-15T05:29:42.681Z,17.41
2016-05-15T05:30:42.699Z,17.4
2016-05-15T05:31:42.717Z,17.46
2016-05-15T05:32:42.737Z,17.38
2016-05-15T05:33:42.770Z,17.41
2016-05-15T05:34:42.850Z,17.48
2016-05-15T05:35:42.823Z,17.41
2016-05-15T05:36:42.856Z,17.49
2016-05-15T05:37:42.858Z,17.43
2016-05-15T05:38:42.877Z,17.48
2016-05-15T05:39:42.911Z,17.54
2016-05-15T05:40:42.930Z,17.46
2016-05-15T05:41:42.947Z,17.51
2016-05-15T05:42:42.966Z,17.59
2016-05-15T05:43:43.000Z,17.54
2016-05-15T05:44:43.018Z,17.54
2016-05-15T05:45:43.036Z,17.63
2016-05-15T05:46:43.071Z,17.64
2016-05-15T05:47:43.089Z,17.64
2016-05-15T05:48:43.123Z,17.71
2016-05-15T05:49:43.579Z,17.7
2016-05-15T05:50:43.160Z,17.72
2016-05-15T05:51:43.177Z,17.77
2016-05-15T05:52:43.212Z,17.79
2016-05-15T05:53:43.230Z,17.87
2016-05-15T05:54:43.248Z,17.9
2016-05-15T05:55:43.298Z,17.87
2016-05-15T05:56:43.145Z,17.84
2016-05-15T05:57:43.334Z,17.86
2016-05-15T05:58:43.337Z,18
2016-05-15T05:59:43.370Z,17.96
2016-05-15T06:00:43.390Z,17.97
2016-05-15T06:01:43.408Z,17.96
2016-05-15T06:02:43.442Z,18
2016-05-15T06:03:43.460Z,18.07
2016-05-15T06:04:43.962Z,18.08
2016-05-15T06:05:43.497Z,18.14
2016-05-15T06:06:43.531Z,18.1
2016-05-15T06:07:43.549Z,18.18
2016-05-15T06:08:43.583Z,18.3
2016-05-15T06:09:43.600Z,18.36
2016-05-15T06:10:43.636Z,18.47
2016-05-15T06:11:43.653Z,18.63
2016-05-15T06:12:43.672Z,18.66
2016-05-15T06:13:43.690Z,18.76
2016-05-15T06:14:43.724Z,18.78
2016-05-15T06:15:43.742Z,18.82
2016-05-15T06:16:43.619Z,18.84
2016-05-15T06:17:43.639Z,18.88
2016-05-15T06:18:43.813Z,18.98
2016-05-15T06:19:44.096Z,19.1
2016-05-15T06:20:43.866Z,19.04
2016-05-15T06:21:43.899Z,19.07
2016-05-15T06:22:43.917Z,19.08
2016-05-15T06:23:43.935Z,19.04
2016-05-15T06:24:43.798Z,19.13
2016-05-15T06:25:43.988Z,19.21
2016-05-15T06:26:44.006Z,19.18
2016-05-15T06:27:44.040Z,19.14
2016-05-15T06:28:43.902Z,19.29
2016-05-15T06:29:43.779Z,19.28
2016-05-15T06:30:44.111Z,19.29
2016-05-15T06:31:44.129Z,19.36
2016-05-15T06:32:44.163Z,19.32
2016-05-15T06:33:44.181Z,19.41
2016-05-15T06:34:44.122Z,19.4
2016-05-15T06:35:44.234Z,19.39
2016-05-15T06:36:44.252Z,19.4
2016-05-15T06:37:44.130Z,19.44
2016-05-15T06:38:44.303Z,19.48
2016-05-15T06:39:44.339Z,19.48
2016-05-15T06:40:44.372Z,19.47
2016-05-15T06:41:44.390Z,19.56
2016-05-15T06:42:44.409Z,19.58
2016-05-15T06:43:44.458Z,19.55
2016-05-15T06:44:44.461Z,19.46
2016-05-15T06:45:44.479Z,19.48
2016-05-15T06:46:44.514Z,19.5
2016-05-15T06:47:44.532Z,19.62
2016-05-15T06:48:44.565Z,19.63
2016-05-15T06:49:44.788Z,19.61
2016-05-15T06:50:44.461Z,19.63
2016-05-15T06:51:44.479Z,19.68
2016-05-15T06:52:44.498Z,19.63
2016-05-15T06:53:44.673Z,19.68
2016-05-15T06:54:44.722Z,19.65
2016-05-15T06:55:44.584Z,19.73
2016-05-15T06:56:44.759Z,19.73
2016-05-15T06:57:44.777Z,19.65
2016-05-15T06:58:44.654Z,19.69
2016-05-15T06:59:44.829Z,19.78
2016-05-15T07:00:44.848Z,19.73
2016-05-15T07:01:44.882Z,19.77
2016-05-15T07:02:44.900Z,19.77
2016-05-15T07:03:44.934Z,19.81
2016-05-15T07:04:44.953Z,19.84
2016-05-15T07:05:44.986Z,19.87
2016-05-15T07:06:45.003Z,19.87
2016-05-15T07:07:45.039Z,19.83
2016-05-15T07:08:45.056Z,19.88
2016-05-15T07:09:45.091Z,19.86
2016-05-15T07:10:44.952Z,19.88
2016-05-15T07:11:44.987Z,19.87
2016-05-15T07:12:45.161Z,19.87
2016-05-15T07:13:45.179Z,19.96
2016-05-15T07:14:45.214Z,19.86
2016-05-15T07:15:45.232Z,19.95
2016-05-15T07:16:45.250Z,19.96
2016-05-15T07:17:45.284Z,19.96
2016-05-15T07:18:45.302Z,19.91
2016-05-15T07:19:45.368Z,19.98
2016-05-15T07:20:45.385Z,20.05
2016-05-15T07:21:45.388Z,20.05
2016-05-15T07:22:45.251Z,20.14
2016-05-15T07:23:45.441Z,20.11
2016-05-15T07:24:45.302Z,20.2
2016-05-15T07:25:45.493Z,20.2
2016-05-15T07:26:45.355Z,20.13
2016-05-15T07:27:45.389Z,20.17
2016-05-15T07:28:45.407Z,20.23
2016-05-15T07:29:45.598Z,20.26
2016-05-15T07:30:45.616Z,20.31
2016-05-15T07:31:45.634Z,20.39
2016-05-15T07:32:45.668Z,20.36
2016-05-15T07:33:45.749Z,20.42
2016-05-15T07:34:46.204Z,20.42
2016-05-15T07:35:45.753Z,20.52
2016-05-15T07:36:45.789Z,20.55
2016-05-15T07:37:45.806Z,20.61
2016-05-15T07:38:45.845Z,20.61
2016-05-15T07:39:45.922Z,20.66
2016-05-15T07:40:45.985Z,20.66
2016-05-15T07:41:45.905Z,20.61
2016-05-15T07:42:46.123Z,20.7
2016-05-15T07:43:46.188Z,20.76
2016-05-15T07:44:46.221Z,20.79
2016-05-15T07:45:46.272Z,20.79
2016-05-15T07:46:46.149Z,20.88
2016-05-15T07:47:46.198Z,20.84
2016-05-15T07:48:46.384Z,20.87
2016-05-15T07:49:46.877Z,20.88
2016-05-15T07:50:46.463Z,20.89
2016-05-15T07:51:47.424Z,20.85
2016-05-15T07:52:59.386Z,20.87
2016-05-15T07:53:46.548Z,20.94
2016-05-15T07:54:46.568Z,20.94
2016-05-15T07:55:46.604Z,20.84
2016-05-15T07:56:46.624Z,20.91
2016-05-15T07:57:46.660Z,20.89
2016-05-15T07:58:46.680Z,20.87
2016-05-15T07:59:46.715Z,20.94
2016-05-15T08:00:46.733Z,20.88
2016-05-15T08:01:46.768Z,20.88
2016-05-15T08:02:46.631Z,20.89
2016-05-15T08:03:46.822Z,20.88
2016-05-15T08:04:46.684Z,20.88
2016-05-15T08:05:46.718Z,20.91
2016-05-15T08:06:46.894Z,20.91
2016-05-15T08:07:46.928Z,20.87
2016-05-15T08:08:46.946Z,20.89
2016-05-15T08:09:46.997Z,20.74
2016-05-15T08:10:47.030Z,20.77
2016-05-15T08:11:47.032Z,20.82
2016-05-15T08:12:47.066Z,20.77
2016-05-15T08:13:47.085Z,20.7
2016-05-15T08:14:47.104Z,20.7
2016-05-15T08:15:47.137Z,20.66
2016-05-15T08:16:47.171Z,20.59
2016-05-15T08:17:47.190Z,20.64
2016-05-15T08:18:47.207Z,20.57
2016-05-15T08:19:47.257Z,20.55
2016-05-15T08:20:47.260Z,20.5
2016-05-15T08:21:47.138Z,20.43
2016-05-15T08:22:47.187Z,20.43
2016-05-15T08:23:47.346Z,20.36
2016-05-15T08:24:47.365Z,20.28
2016-05-15T08:25:47.383Z,20.33
2016-05-15T08:26:47.417Z,20.29
2016-05-15T08:27:47.294Z,20.18
2016-05-15T08:28:47.470Z,20.17
2016-05-15T08:29:47.331Z,20.2
2016-05-15T08:30:47.349Z,20.17
2016-05-15T08:31:47.539Z,20.13
2016-05-15T08:32:47.573Z,20.06
2016-05-15T08:33:47.592Z,20.05
2016-05-15T08:34:48.203Z,19.95
2016-05-15T08:35:47.661Z,19.99
2016-05-15T08:36:47.663Z,19.94
2016-05-15T08:37:47.680Z,19.91
2016-05-15T08:38:47.715Z,19.88
2016-05-15T08:39:47.749Z,19.88
2016-05-15T08:40:47.766Z,19.83
2016-05-15T08:41:47.801Z,19.76
2016-05-15T08:42:47.819Z,19.78
2016-05-15T08:43:47.838Z,19.71
2016-05-15T08:44:47.871Z,19.76
2016-05-15T08:45:47.905Z,19.66
2016-05-15T08:46:47.924Z,19.71
2016-05-15T08:47:47.942Z,19.74
2016-05-15T08:48:47.976Z,19.68
2016-05-15T08:49:47.854Z,19.73
2016-05-15T08:50:48.013Z,19.71
2016-05-15T08:51:48.046Z,19.66
2016-05-15T08:52:48.065Z,19.74
2016-05-15T08:53:47.926Z,19.73
2016-05-15T08:54:48.117Z,19.66
2016-05-15T08:55:47.995Z,19.63
2016-05-15T08:56:48.013Z,19.69
2016-05-15T08:57:48.203Z,19.63
2016-05-15T08:58:48.065Z,19.63
2016-05-15T08:59:48.084Z,19.73
2016-05-15T09:00:48.289Z,19.65
2016-05-15T09:01:48.151Z,19.76
2016-05-15T09:02:48.311Z,19.71
2016-05-15T09:03:48.360Z,19.78
2016-05-15T09:04:48.223Z,19.78
2016-05-15T09:05:48.397Z,19.76
2016-05-15T09:06:48.414Z,19.78
2016-05-15T09:07:48.433Z,19.66
2016-05-15T09:08:48.466Z,19.86
2016-05-15T09:09:48.329Z,19.74
2016-05-15T09:10:48.380Z,19.71
2016-05-15T09:11:48.538Z,19.76
2016-05-15T09:12:48.415Z,19.83
2016-05-15T09:13:48.591Z,19.66
2016-05-15T09:14:48.624Z,19.76
2016-05-15T09:15:48.642Z,19.71
2016-05-15T09:16:48.676Z,19.69
2016-05-15T09:17:48.695Z,19.66
2016-05-15T09:18:48.713Z,19.68
2016-05-15T09:19:49.043Z,19.63
2016-05-15T09:20:48.765Z,19.69
2016-05-15T09:21:48.783Z,19.69
2016-05-15T09:22:48.818Z,19.65
2016-05-15T09:23:48.835Z,19.63
2016-05-15T09:24:48.713Z,19.65
2016-05-15T09:25:48.888Z,19.66
2016-05-15T09:26:48.922Z,19.61
2016-05-15T09:27:48.940Z,19.61
2016-05-15T09:28:48.818Z,19.61
2016-05-15T09:29:48.851Z,19.63
2016-05-15T09:30:49.011Z,19.58
2016-05-15T09:31:49.029Z,19.5
2016-05-15T09:32:49.063Z,19.5
2016-05-15T09:33:49.097Z,19.62
2016-05-15T09:34:48.959Z,19.59
2016-05-15T09:35:49.133Z,19.62
2016-05-15T09:36:49.167Z,19.63
2016-05-15T09:37:49.030Z,19.51
2016-05-15T09:38:49.064Z,19.47
2016-05-15T09:39:49.238Z,19.51
2016-05-15T09:40:48.944Z,19.62
2016-05-15T09:41:49.275Z,19.5
2016-05-15T09:42:49.308Z,19.51
2016-05-15T09:43:49.343Z,19.65
2016-05-15T09:44:49.360Z,19.61
2016-05-15T09:45:49.395Z,19.65
2016-05-15T09:46:49.413Z,19.62
2016-05-15T09:47:49.447Z,19.61
2016-05-15T09:48:49.449Z,19.61
2016-05-15T09:49:49.702Z,19.59
2016-05-15T09:50:49.518Z,19.62
2016-05-15T09:51:49.536Z,19.62
2016-05-15T09:52:49.570Z,19.62
2016-05-15T09:53:49.588Z,19.71
2016-05-15T09:54:49.606Z,19.69
2016-05-15T09:55:49.640Z,19.73
2016-05-15T09:56:49.659Z,19.74
2016-05-15T09:57:49.692Z,19.73
2016-05-15T09:58:49.712Z,19.71
2016-05-15T09:59:49.573Z,19.76
2016-05-15T10:00:49.607Z,19.76
2016-05-15T10:01:49.781Z,19.68
2016-05-15T10:02:49.815Z,19.66
2016-05-15T10:03:49.678Z,19.76
2016-05-15T10:04:49.883Z,19.83
2016-05-15T10:05:49.886Z,19.78
2016-05-15T10:06:49.905Z,19.77
2016-05-15T10:07:49.939Z,19.76
2016-05-15T10:08:49.956Z,19.83
2016-05-15T10:09:49.833Z,19.76
2016-05-15T10:10:50.008Z,19.76
2016-05-15T10:11:50.044Z,19.74
2016-05-15T10:12:49.905Z,19.74
2016-05-15T10:13:50.079Z,19.77
2016-05-15T10:14:50.098Z,19.78
2016-05-15T10:15:50.147Z,19.77
2016-05-15T10:16:50.010Z,19.8
2016-05-15T10:17:50.184Z,19.81
2016-05-15T10:18:50.203Z,19.76
2016-05-15T10:19:50.643Z,19.76
2016-05-15T10:20:50.271Z,19.76
2016-05-15T10:21:50.273Z,19.73
2016-05-15T10:22:50.322Z,19.68
2016-05-15T10:23:50.341Z,19.69
2016-05-15T10:24:50.359Z,19.63
2016-05-15T10:25:50.252Z,19.62
2016-05-15T10:26:50.254Z,19.69
2016-05-15T10:27:50.461Z,19.73
2016-05-15T10:28:50.479Z,19.62
2016-05-15T10:29:50.482Z,19.65
2016-05-15T10:30:50.515Z,19.58
2016-05-15T10:31:50.518Z,19.61
2016-05-15T10:32:50.553Z,19.62
2016-05-15T10:33:50.587Z,19.62
2016-05-15T10:34:51.167Z,19.63
2016-05-15T10:35:50.310Z,19.63
2016-05-15T10:36:50.657Z,19.61
2016-05-15T10:37:50.551Z,19.59
2016-05-15T10:38:50.553Z,19.63
2016-05-15T10:39:50.727Z,19.54
2016-05-15T10:40:50.606Z,19.56
2016-05-15T10:41:50.624Z,19.63
2016-05-15T10:42:50.658Z,19.65
2016-05-15T10:43:50.675Z,19.62
2016-05-15T10:44:50.850Z,19.62
2016-05-15T10:45:50.869Z,19.59
2016-05-15T10:46:50.763Z,19.54
2016-05-15T10:47:50.936Z,19.51
2016-05-15T10:48:50.799Z,19.5
2016-05-15T10:49:50.973Z,19.51
2016-05-15T10:50:50.852Z,19.47
2016-05-15T10:51:51.026Z,19.5
2016-05-15T10:52:51.043Z,19.54
2016-05-15T10:53:51.077Z,19.51
2016-05-15T10:54:51.095Z,19.51
2016-05-15T10:55:50.974Z,19.54
2016-05-15T10:56:51.148Z,19.55
2016-05-15T10:57:51.167Z,19.5
2016-05-15T10:58:51.200Z,19.47
2016-05-15T10:59:51.219Z,19.48
2016-05-15T11:00:51.237Z,19.5
2016-05-15T11:01:51.271Z,19.44
2016-05-15T11:02:51.305Z,19.54
2016-05-15T11:03:51.168Z,19.46
2016-05-15T11:04:51.356Z,19.54
2016-05-15T11:05:51.376Z,19.56
2016-05-15T11:06:51.394Z,19.5
2016-05-15T11:07:51.428Z,19.54
2016-05-15T11:08:51.446Z,19.51
2016-05-15T11:09:51.481Z,19.58
2016-05-15T11:10:51.483Z,19.55
2016-05-15T11:11:51.361Z,19.5
2016-05-15T11:12:51.378Z,19.56
2016-05-15T11:13:51.256Z,19.48
2016-05-15T11:14:51.587Z,19.46
2016-05-15T11:15:51.637Z,19.43
2016-05-15T11:16:51.639Z,19.43
2016-05-15T11:17:51.658Z,19.43
2016-05-15T11:18:51.691Z,19.5
2016-05-15T11:19:51.554Z,19.51
2016-05-15T11:20:51.744Z,19.43
2016-05-15T11:21:51.762Z,19.43
2016-05-15T11:22:51.796Z,19.48
2016-05-15T11:23:59.549Z,19.54
2016-05-15T11:24:51.692Z,19.47
2016-05-15T11:25:51.710Z,19.46
2016-05-15T11:26:51.901Z,19.47
2016-05-15T11:27:51.762Z,19.48
2016-05-15T11:28:51.937Z,19.46
2016-05-15T11:29:51.971Z,19.43
2016-05-15T11:30:52.006Z,19.43
2016-05-15T11:31:51.851Z,19.43
2016-05-15T11:32:52.026Z,19.44
2016-05-15T11:33:52.060Z,19.55
2016-05-15T11:34:52.360Z,19.51
2016-05-15T11:35:52.112Z,19.51
2016-05-15T11:36:52.131Z,19.51
2016-05-15T11:37:51.992Z,19.47
2016-05-15T11:38:52.042Z,19.59
2016-05-15T11:39:52.201Z,19.54
2016-05-15T11:40:52.236Z,19.58
2016-05-15T11:41:52.097Z,19.55
2016-05-15T11:42:52.600Z,19.61
2016-05-15T11:43:52.305Z,19.62
2016-05-15T11:44:52.184Z,19.66
2016-05-15T11:45:52.358Z,19.61
2016-05-15T11:46:52.377Z,19.68
2016-05-15T11:47:52.238Z,19.65
2016-05-15T11:48:52.429Z,19.65
2016-05-15T11:49:52.712Z,19.65
2016-05-15T11:50:52.481Z,19.63
2016-05-15T11:51:52.499Z,19.66
2016-05-15T11:52:52.533Z,19.73
2016-05-15T11:53:52.551Z,19.68
2016-05-15T11:54:52.679Z,19.76
2016-05-15T11:55:52.603Z,19.76
2016-05-15T11:56:52.638Z,19.78
2016-05-15T11:57:52.500Z,19.8
2016-05-15T11:58:52.674Z,19.78
2016-05-15T11:59:52.692Z,19.8
2016-05-15T12:00:52.726Z,19.76
2016-05-15T12:01:52.745Z,19.86
2016-05-15T12:02:52.779Z,19.8
2016-05-15T12:03:52.813Z,19.83
2016-05-15T12:04:52.722Z,19.8
2016-05-15T12:05:52.850Z,19.86
2016-05-15T12:06:52.727Z,19.86
2016-05-15T12:07:52.901Z,19.87
2016-05-15T12:08:52.920Z,19.84
2016-05-15T12:09:52.954Z,19.88
2016-05-15T12:10:52.988Z,19.87
2016-05-15T12:11:53.006Z,19.87
2016-05-15T12:12:53.025Z,19.94
2016-05-15T12:13:53.075Z,19.86
2016-05-15T12:14:53.092Z,19.91
2016-05-15T12:15:53.127Z,19.95
2016-05-15T12:16:53.144Z,19.94
2016-05-15T12:17:53.022Z,19.95
2016-05-15T12:18:53.180Z,19.92
2016-05-15T12:19:53.949Z,19.87
2016-05-15T12:20:53.234Z,19.86
2016-05-15T12:21:53.252Z,19.92
2016-05-15T12:22:53.286Z,19.96
2016-05-15T12:23:53.319Z,19.99
2016-05-15T12:24:53.322Z,19.92
2016-05-15T12:25:53.199Z,20.02
2016-05-15T12:26:53.375Z,19.99
2016-05-15T12:27:53.409Z,19.95
2016-05-15T12:28:53.427Z,19.95
2016-05-15T12:29:53.460Z,19.96
2016-05-15T12:30:53.510Z,19.94
2016-05-15T12:31:53.513Z,19.99
2016-05-15T12:32:53.532Z,20.06
2016-05-15T12:33:53.550Z,20.01
2016-05-15T12:34:54.006Z,19.98
2016-05-15T12:35:53.617Z,20.02
2016-05-15T12:36:53.636Z,19.88
2016-05-15T12:37:53.654Z,20.03
2016-05-15T12:38:53.673Z,20.02
2016-05-15T12:39:53.551Z,20.06
2016-05-15T12:40:53.584Z,19.95
2016-05-15T12:41:53.603Z,19.94
2016-05-15T12:42:53.777Z,19.92
2016-05-15T12:43:53.811Z,19.94
2016-05-15T12:44:53.829Z,19.94
2016-05-15T12:45:53.708Z,19.92
2016-05-15T12:46:53.725Z,19.83
2016-05-15T12:47:53.916Z,19.92
2016-05-15T12:48:53.778Z,19.96
2016-05-15T12:49:53.827Z,19.92
2016-05-15T12:50:53.986Z,19.92
2016-05-15T12:51:54.004Z,19.88
2016-05-15T12:52:54.054Z,19.87
2016-05-15T12:53:54.057Z,19.83
2016-05-15T12:54:54.091Z,19.84
2016-05-15T12:55:54.109Z,19.81